Terminal Aerodrome Forecast
Issued by NWS

Home | Current Version | Previous Version | Graphics & Text | Print | Product List | Glossary On
Versions: 1 2 3 4 5 6 7 8 9 10 11 12 13 14 15 16 17 18 19 20 21 22 23 24 25 26 27
000
FTUS43 KBIS 290500
TAFJMS
TAF
KJMS 290520Z 2906/3006 21015G25KT 5SM -RA BKN035
     FM290900 29022G30KT 5SM -SHRA BKN012
     FM291600 32028G38KT P6SM SCT050
     FM292200 31019G29KT P6SM SCT240=

USA.gov is the U.S. government's official web portal to all federal, state and local government web resources and services.